Sylvain Moniquet

Lotto Soudal

Information
Nationality Belgium
Born14th January 1998 (23)
UCI Ranking 1059
Agency 10SPEED HR

2021202020192018201720162015

Date Pos GC Race CAT
2016-07-06 06.07 5 Course de côte Herbeumont Juniors Jr
2016-03-28 28.03 DNF Ster van Zuid-Limburg Jr
2016-09-11 11.09 6 Giro di Basilicata Juniors J-2.1
2016-09-04 04.09 26 GP Rüebliland Juniors J-2.1
2016-08-07 07.08 51 Aubel - Stavelot Juniors J-2.1
2016-07-14 14.07 11 Valromey Juniors J-2.1
2016-05-29 29.05 24 Pays de Vaud Juniors J-2.NC
2016-05-01 01.05 32 Tour des Portes Juniors J-2.1
2016-09-18 18.09 112 Keizer der Juniores J-2.1
2016-03-20 20.03 30 GP Bob Jungels Juniors J-1.1
2016-04-24 24.04 DNF E3 Saxo Bank Classic Juniors J-1.1
2016-09-11 11.09 8 Giro di Basilicata Juniors | Points J-2.1
2016-09-11 11.09 4 Giro di Basilicata Juniors | Mountain J-2.1
2016-07-14 14.07 11 - Valromey Juniors | Sprint J-2.1
2016-09-18 18.09 106 112 Keizer der Juniores | 3rd stage J-2.1
2016-09-18 18.09 164 149 Keizer der Juniores | 2nd stage J-2.1
2016-09-17 17.09 84 84 Keizer der Juniores | 1st stage J-2.1
2016-09-11 11.09 12 6 Giro di Basilicata Juniors | 3rd stage J-2.1
2016-09-10 10.09 10 6 Giro di Basilicata Juniors | 2nd stage J-2.1
2016-09-09 09.09 7 7 Giro di Basilicata Juniors | 1st stage J-2.1
2016-09-04 04.09 34 26 GP Rüebliland Juniors | 4th stage J-2.1
2016-09-03 03.09 41 29 GP Rüebliland Juniors | 3rd stage J-2.1
2016-09-03 03.09 108 51 GP Rüebliland Juniors | 2nd stage J-2.1
2016-09-02 02.09 23 26 GP Rüebliland Juniors | 1st stage J-2.1
2016-08-07 07.08 21 51 Aubel - Stavelot Juniors | 4th stage J-2.1
2016-08-06 06.08 71 74 Aubel - Stavelot Juniors | 3rd stage J-2.1
2016-08-06 06.08 16 57 Aubel - Stavelot Juniors | 2nd stage | TTT J-2.1
2016-08-05 05.08 34 34 Aubel - Stavelot Juniors | 1st stage J-2.1
2016-07-14 14.07 22 11 Valromey Juniors | 4th stage J-2.1
2016-07-13 13.07 10 11 Valromey Juniors | 3rd stage J-2.1
2016-07-12 12.07 39 25 Valromey Juniors | 2nd stage J-2.1
2016-07-11 11.07 15 19 Valromey Juniors | 1st stage J-2.1
2016-05-29 29.05 16 24 Pays de Vaud Juniors | 4th stage J-2.NC
2016-05-28 28.05 44 25 Pays de Vaud Juniors | 3rd stage J-2.NC
2016-05-28 28.05 22 29 Pays de Vaud Juniors | 2nd stage J-2.NC
2016-05-27 27.05 31 50 Pays de Vaud Juniors | 1st stage J-2.NC
2016-05-26 26.05 87 87 Pays de Vaud Juniors | Prologue J-2.NC
2016-05-01 01.05 80 32 Tour des Portes Juniors | 3rd stage J-2.1
2016-05-01 01.05 5 11 Tour des Portes Juniors | 2nd stage | TTT J-2.1
2016-04-30 30.04 20 20 Tour des Portes Juniors | 1st stage J-2.1
2016-03-28 28.03 DNF Ster van Zuid-Limburg | 3rd stage Jr
2016-03-27 27.03 41 Ster van Zuid-Limburg | 2nd stage Jr
2016-03-26 26.03 48 Ster van Zuid-Limburg | 1st stage Jr